Weather observations for the past three days for
Falfurrias, Brooks County Airport
Imperial (Metric)
Date Time (cdt) Wind (mph) Vis. (mi.) Weather Sky Cond. Temperature (ºF) Relative Humidity Wind Chill (°F) Heat Index (°F) Pressure Precipitation (in)
Air Dwpt 6 hour altimeter (in) sea level (mb) 1 hr 3 hr 6 hr
Max. Min.
05 12:55 S 12 G 16 10.00 Fair CLR 98.4 70.2 40% 106 29.87 0.0
05 12:35 Vrbl 6 10.00 Fair CLR 97.9 70.7 41% 106 29.88 0.0
05 12:15 SE 14 G 21 10.00 Fair CLR 97 72.1 45% 106 29.89 0.0
05 11:55 SE 9 10.00 Fair CLR 95.9 72.9 47% 106 29.89 0.0
05 11:35 SE 13 G 17 10.00 Fair CLR 94.3 73 50% 104 29.9 0.0
05 11:15 S 9 10.00 Fair CLR 93 74.1 54% 103 29.9 0.0
05 10:55 SE 12 10.00 A Few Clouds FEW028 91.6 75.6 60% 103 29.91 0.0
05 10:35 SE 10 10.00 A Few Clouds FEW027 91.2 76.8 63% 105 29.91 0.0
05 10:15 S 10 10.00 Fair CLR 89.6 77.5 68% 103 29.91 0.0
05 09:55 SE 10 10.00 A Few Clouds FEW019 88.7 78.3 71% 103 29.91 0.0
05 09:35 Calm 10.00 A Few Clouds FEW017 87.4 79.2 77% 102 29.91 0.0
05 09:15 S 9 10.00 Fair CLR 85.5 79.9 83% 100 29.9 0.0
05 08:55 Calm 10.00 Fair CLR 83.1 80.2 91% 95 29.9 0.0
05 08:35 Calm 10.00 Fair CLR 80.8 80.1 98% 89 29.89 0.0
05 08:15 Calm 8.00 Fair CLR 79 78.4 98% 84 29.89 0.0
05 07:55 W 5 8.00 Fair CLR 77.9 77 97% 80 29.88 0.0
05 06:35 NE 3 9.00 Fair CLR 77.2 75.9 96% 78 29.86 0.0
05 06:15 Calm 9.00 Fair CLR 77.2 75.9 96% 78 29.85 0.0
05 05:55 Calm 9.00 Fair CLR 77.4 76.1 96% 79 29.85 0.0
05 05:35 SE 3 9.00 Fair CLR 77.5 76.1 95% 79 29.85 0.0
05 05:15 E 5 9.00 Fair CLR 77.7 76.1 95% 80 29.86 0.0
05 04:55 E 5 9.00 Fair CLR 78.1 76.5 95% 81 29.85 0.0
05 04:35 E 3 9.00 Fair CLR 79 77.5 95% 83 29.85 0.0
05 04:15 SE 6 10.00 Fair CLR 79.5 77.7 94% 85 29.86 0.0
05 03:55 Calm 10.00 Fair CLR 79.7 77.5 93% 85 29.86 0.0
05 03:35 S 3 10.00 Fair CLR 80.2 77.9 93% 87 29.87 0.0
05 03:15 SE 5 10.00 Fair CLR 80.6 78.4 93% 88 29.87 0.0
05 02:55 SE 6 10.00 Fair CLR 80.8 78.6 93% 88 29.86 0.0
05 02:35 SE 7 10.00 Fair CLR 80.8 78.3 92% 88 29.87 0.0
05 02:15 SE 5 10.00 Fair CLR 80.8 77.9 91% 88 29.88 0.0
05 01:55 SE 5 10.00 Fair CLR 81.1 78.3 91% 89 29.88 0.0
05 01:35 SE 5 10.00 Fair CLR 81.3 78.1 90% 89 29.88 0.0
05 01:15 SE 6 10.00 Fair CLR 81.5 78.3 90% 90 29.88 0.0
05 00:55 SE 5 10.00 Fair CLR 81.7 78.1 89% 90 29.89 0.0
05 00:35 SE 5 10.00 Fair CLR 81.9 77.9 88% 90 29.89 0.0
05 00:15 SE 7 10.00 Fair CLR 82 78.1 88% 91 29.88 0.0
04 23:55 SE 7 10.00 Fair CLR 82.4 78.1 87% 92 29.88 0.0
04 23:35 SE 8 10.00 Fair CLR 82.8 77.9 85% 92 29.89 0.0
04 23:15 E 6 10.00 Fair CLR 83.3 77.9 84% 93 29.89 0.0
04 22:55 SE 8 10.00 Fair CLR 83.8 77.7 82% 94 29.89 0.0
04 22:35 SE 8 10.00 Fair CLR 84.2 77.7 81% 95 29.89 0.0
04 22:15 SE 9 10.00 Fair CLR 84.4 77.5 80% 95 29.89 0.0
04 21:55 SE 9 10.00 Fair CLR 84.7 77.5 79% 96 29.88 0.0
04 21:35 SE 10 10.00 Fair CLR 85.1 77.7 79% 96 29.87 0.0
04 21:15 SE 9 10.00 Fair CLR 85.5 77.7 78% 97 29.87 0.0
04 20:55 SE 10 10.00 Fair CLR 85.8 77.7 77% 98 29.86 0.0
04 20:35 SE 12 G 20 10.00 Fair CLR 86.4 77.4 75% 98 29.85 0.0
04 20:15 SE 12 10.00 Fair CLR 86.7 77.2 73% 98 29.84 0.0
04 19:55 SE 15 G 22 10.00 Fair CLR 87.6 76.5 70% 99 29.85 0.0
04 19:35 SE 14 G 22 10.00 Fair CLR 88.5 75.7 66% 99 29.84 0.0
04 19:15 Calm 10.00 Fair CLR 89.2 76.1 65% 101 29.83 0.0
04 18:55 Calm 10.00 Fair CLR 90.3 76.1 63% 102 29.82 0.0
04 18:35 SE 16 G 24 10.00 Fair CLR 92.3 75.9 59% 105 29.82 0.0
04 18:15 E 14 G 23 10.00 Fair CLR 93.4 76.8 59% 107 29.81 0.0
04 17:55 SE 14 G 23 10.00 Fair CLR 94.8 76.5 55% 109 29.81 0.0
04 17:35 E 14 10.00 Fair CLR 95.4 76.6 55% 110 29.81 0.0
04 17:15 E 17 G 25 10.00 Fair CLR 96.8 76.5 52% 111 29.8 0.0
04 16:55 SE 17 G 24 10.00 Fair CLR 97.7 75.9 50% 112 29.8 0.0
04 16:35 E 18 G 25 10.00 Fair CLR 99.1 75.9 48% 114 29.8 0.0
04 16:15 E 21 G 25 10.00 A Few Clouds and Breezy FEW060 99 75.9 48% 113 29.8 0.0
04 15:55 E 15 G 24 10.00 A Few Clouds FEW065 100.4 74.5 44% 113 29.8 0.0
04 15:35 SE 9 10.00 A Few Clouds FEW070 100.9 70.5 38% 109 29.8 0.0
04 15:15 E 12 10.00 Fair CLR 103.5 68.9 33% 111 29.8 0.0
04 14:55 Vrbl 6 10.00 Fair CLR 104.5 67.5 30% 111 29.81 0.0
04 14:35 E 8 10.00 Fair CLR 103.3 67.6 32% 110 29.82 0.0
04 14:15 S 9 10.00 A Few Clouds FEW065 102 68.5 34% 109 29.83 0.0
04 13:55 SE 10 10.00 Partly Cloudy FEW065 SCT330 SCT360 102.6 69.1 34% 110 29.84 0.0
04 13:35 S 9 G 20 10.00 A Few Clouds FEW360 100.6 69.1 36% 107 29.85 0.0
04 13:15 S 12 10.00 A Few Clouds FEW350 99.9 70.2 38% 108 29.86 0.0
04 12:55 S 9 10.00 A Few Clouds FEW350 99.3 70 39% 107 29.86 0.0
04 12:35 S 12 10.00 A Few Clouds FEW370 97.7 71.6 43% 106 29.87 0.0
04 12:15 S 10 10.00 Fair CLR 97.2 72.3 45% 107 29.88 0.0
04 11:55 SE 9 10.00 A Few Clouds FEW370 95.7 73.8 49% 106 29.89 0.0
04 11:35 SE 10 G 18 10.00 Fair CLR 94.5 73.9 52% 105 29.9 0.0
04 11:15 SE 13 G 24 10.00 Fair CLR 93.4 74.8 55% 105 29.9 0.0
04 10:35 SE 12 10.00 Fair CLR 91 76.6 63% 104 29.89 0.0
04 10:15 S 13 10.00 Fair CLR 89.4 76.6 66% 102 29.9 0.0
04 09:55 S 16 10.00 Fair CLR 88.2 77.2 70% 101 29.9 0.0
04 09:35 SE 13 10.00 Fair CLR 87.1 78.8 76% 101 29.89 0.0
04 09:15 SE 13 G 21 10.00 Fair CLR 85.1 79 82% 98 29.89 0.0
04 08:55 SE 10 10.00 Fair CLR 83.1 79.3 88% 94 29.89 0.0
04 08:35 SE 9 10.00 Fair CLR 80.6 79.5 97% 89 29.89 0.0
04 08:15 SE 6 9.00 Fair CLR 79.5 78.8 98% 85 29.88 0.0
04 07:55 Calm 9.00 Fair CLR 77.9 77.2 98% 80 29.87 0.0
04 07:35 E 5 8.00 Fair CLR 77.4 76.5 97% 79 29.87 0.0
04 07:15 E 5 9.00 Fair CLR 77.4 76.5 97% 79 29.87 0.0
04 06:55 E 5 10.00 Fair CLR 77.7 76.8 97% 80 29.86 0.0
04 06:35 SE 7 10.00 Fair CLR 77.7 76.8 97% 80 29.86 0.0
04 06:15 E 6 10.00 Fair CLR 77.9 77 97% 80 29.86 0.0
04 05:55 SE 6 10.00 Fair CLR 77.9 76.6 96% 80 29.85 0.0
04 05:35 E 5 10.00 Fair CLR 77.9 76.3 95% 80 29.85 0.0
04 05:15 E 5 10.00 Fair CLR 78.1 76.6 95% 81 29.85 0.0
04 04:55 E 5 10.00 Fair CLR 78.4 76.6 94% 82 29.85 0.0
04 04:35 E 5 10.00 Fair CLR 78.8 76.6 93% 83 29.85 0.0
04 04:15 SE 6 10.00 Fair CLR 79.3 77 93% 84 29.85 0.0
04 03:55 E 3 10.00 Fair CLR 79.7 76.8 91% 85 29.85 0.0
04 03:35 SE 5 10.00 Fair CLR 80.4 77.5 91% 87 29.85 0.0
04 03:15 SE 6 10.00 Fair CLR 80.8 77.7 90% 88 29.85 0.0
04 02:55 SE 5 10.00 Fair CLR 81 77.7 90% 88 29.86 0.0
04 02:35 S 7 10.00 Fair CLR 81.3 77.9 89% 89 29.86 0.0
04 02:15 S 8 10.00 Fair CLR 81.7 78.1 89% 90 29.87 0.0
04 01:55 SE 7 10.00 Fair CLR 82 78.3 88% 91 29.87 0.0
04 01:35 S 8 10.00 Fair CLR 82.2 78.3 88% 92 29.87 0.0
04 01:15 SE 7 10.00 Fair CLR 82.6 78.3 87% 92 29.88 0.0
04 00:55 SE 7 10.00 Fair CLR 82.9 78.6 87% 93 29.88 0.0
04 00:35 SE 8 10.00 Fair CLR 83.3 78.6 86% 94 29.88 0.0
04 00:15 SE 10 10.00 Fair CLR 83.5 78.6 85% 94 29.88 0.0
03 23:55 SE 10 10.00 Fair CLR 83.8 78.6 84% 95 29.88 0.0
03 23:35 SE 13 10.00 Fair CLR 84.2 78.6 83% 96 29.87 0.0
03 23:15 SE 14 10.00 Fair CLR 84.4 78.6 83% 96 29.87 0.0
03 22:55 SE 10 10.00 Fair CLR 84.7 78.6 82% 97 29.87 0.0
03 22:35 SE 12 G 20 10.00 Fair CLR 84.9 78.4 81% 97 29.87 0.0
03 22:15 SE 10 10.00 Fair CLR 85.1 78.4 81% 97 29.86 0.0
03 21:55 SE 12 10.00 Fair CLR 85.3 78.4 80% 98 29.86 0.0
03 21:35 SE 15 10.00 Fair CLR 85.6 78.4 79% 98 29.85 0.0
03 21:15 SE 13 10.00 Fair CLR 85.8 78.4 79% 99 29.84 0.0
03 20:55 SE 14 10.00 Fair CLR 86.2 78.3 77% 99 29.83 0.0
03 20:35 SE 16 G 22 10.00 Fair CLR 86.7 78.3 76% 100 29.83 0.0
03 20:15 E 14 G 20 10.00 Fair CLR 87.4 77.9 73% 101 29.82 0.0
03 19:55 E 14 10.00 Fair CLR 88.3 77.7 71% 102 29.82 0.0
03 19:35 SE 14 G 23 10.00 Fair CLR 89.6 77.4 67% 103 29.81 0.0
03 19:15 E 14 10.00 Fair CLR 90.9 76.6 63% 104 29.81 0.0
03 18:35 E 17 G 23 10.00 Fair CLR 92.7 77.2 61% 107 29.79 0.0
03 18:15 SE 21 G 28 10.00 Fair and Breezy CLR 95 77.5 57% 111 29.78 0.0
03 17:55 SE 17 G 24 10.00 Fair CLR 96.6 77.4 54% 113 29.78 0.0
03 17:35 SE 20 G 25 10.00 Fair CLR 98.4 77.2 51% 115 29.77 0.0
03 17:15 SE 17 G 24 10.00 Fair CLR 100.2 76.3 47% 116 29.76 0.0
03 16:55 E 14 G 24 10.00 Fair CLR 101.7 75.4 43% 116 29.76 0.0
03 16:35 SE 13 G 21 10.00 Fair CLR 102.6 74.1 40% 116 29.76 0.0
03 16:15 SE 17 10.00 Fair CLR 102 72.7 39% 113 29.76 0.0
03 15:55 SE 15 G 21 10.00 Fair CLR 104.4 70.9 34% 114 29.77 0.0
03 15:35 S 8 10.00 Fair CLR 105.3 67.3 29% 112 29.77 0.0
03 15:15 S 8 10.00 Fair CLR 105.3 64.9 27% 110 29.78 0.0
03 14:55 S 8 10.00 Fair CLR 103.6 68.9 33% 111 29.79 0.0
03 14:35 S 9 G 17 10.00 Fair CLR 103.3 68.9 33% 111 29.8 0.0
03 14:15 S 10 G 17 10.00 Fair CLR 103.3 69.4 34% 111 29.81 0.0
03 13:55 SE 10 G 16 10.00 A Few Clouds FEW360 102 70.9 37% 111 29.81 0.0
03 13:35 SE 13 10.00 A Few Clouds FEW360 101.3 70.5 37% 110 29.83 0.0
03 13:15 S 12 G 16 10.00 A Few Clouds FEW330 100.8 71.4 39% 110 29.84 0.0
03 12:55 S 13 10.00 A Few Clouds FEW380 99.9 72.1 41% 110 29.84 0.0
03 12:35 S 14 G 22 10.00 Fair CLR 99.3 72 41% 109 29.85 0.0
03 12:15 S 15 G 22 10.00 Fair CLR 97.3 72.1 44% 107 29.87 0.0
03 11:55 S 15 10.00 Fair CLR 96.6 73 47% 107 29.88 0.0
03 11:35 S 13 G 21 10.00 Fair CLR 95.2 74.5 51% 107 29.89 0.0
03 11:15 SE 15 10.00 Fair CLR 94.5 73.9 52% 105 29.89 0.0
03 10:55 S 14 G 21 10.00 Fair CLR 92.8 74.7 56% 104 29.89 0.0
03 10:35 S 15 10.00 Fair CLR 91.4 75.2 59% 103 29.89 0.0
03 10:15 S 13 G 21 10.00 Fair CLR 90.1 76.3 64% 102 29.9 0.0
03 09:55 S 14 10.00 Fair CLR 88.7 77.4 69% 102 29.9 0.0
03 09:35 S 17 10.00 Fair CLR 87.3 78.4 75% 101 29.9 0.0
03 09:15 SE 17 10.00 Fair CLR 85.8 78.8 80% 99 29.9 0.0
03 08:55 SE 13 G 20 10.00 Fair CLR 84.2 79.5 86% 97 29.9 0.0
03 08:35 SE 10 10.00 Fair CLR 81.7 79.7 94% 92 29.9 0.0
03 08:15 SE 7 10.00 Fair CLR 79.7 78.4 96% 86 29.9 0.0
03 07:55 E 6 9.00 Fair CLR 78.8 77.5 96% 83 29.9 0.0
03 07:35 SE 7 9.00 Fair CLR 78.1 76.8 96% 81 29.89 0.0
03 07:15 E 5 9.00 Fair CLR 77.9 76.3 95% 80 29.89 0.0
03 06:55 SE 5 10.00 Fair CLR 78.8 77 94% 83 29.89 0.0
03 06:35 SE 5 10.00 Fair CLR 79 76.8 93% 83 29.89 0.0
03 06:15 E 3 10.00 Fair CLR 79.5 76.8 92% 85 29.89 0.0
03 05:55 E 3 10.00 Fair CLR 80.1 77.2 91% 86 29.89 0.0
03 05:35 E 3 10.00 Fair CLR 80.4 77.5 91% 87 29.9 0.0
03 05:15 E 3 10.00 Fair CLR 80.8 77.5 90% 88 29.89 0.0
03 04:55 S 5 10.00 Fair CLR 81 77.7 90% 88 29.89 0.0
03 04:35 SE 6 10.00 Fair CLR 81.1 77.9 90% 89 29.89 0.0
03 04:15 S 6 10.00 Fair CLR 81.1 77.9 90% 89 29.89 0.0
03 03:55 S 7 10.00 Fair CLR 81 77.7 90% 88 29.89 0.0
03 03:35 S 7 10.00 Fair CLR 81 77.7 90% 88 29.89 0.0
03 03:15 SE 5 10.00 Fair CLR 81.3 78.1 90% 89 29.89 0.0
03 02:55 S 7 10.00 Fair CLR 81.7 78.1 89% 90 29.89 0.0
03 02:35 S 7 10.00 Fair CLR 82 78.3 88% 91 29.89 0.0
03 02:15 SE 5 10.00 Fair CLR 82.6 78.3 87% 92 29.9 0.0
03 01:55 S 7 10.00 Fair CLR 82.9 78.3 86% 93 29.9 0.0
03 01:35 S 9 10.00 Fair CLR 83.3 78.3 85% 94 29.9 0.0
03 01:15 S 12 10.00 Fair CLR 83.3 78.3 85% 94 29.9 0.0
03 00:55 S 10 10.00 Fair CLR 83.5 78.4 85% 94 29.9 0.0
03 00:35 S 12 10.00 Fair CLR 83.5 78.4 85% 94 29.9 0.0
03 00:15 S 10 10.00 Fair CLR 83.7 78.6 85% 95 29.91 0.0
02 23:55 S 10 10.00 Fair CLR 83.8 78.8 85% 95 29.9 0.0
02 23:35 SE 13 10.00 Fair CLR 84.2 78.8 84% 96 29.9 0.0
02 23:15 SE 14 10.00 Fair CLR 84.4 78.8 83% 96 29.9 0.0
02 22:55 SE 13 10.00 Fair CLR 84.7 79 83% 97 29.9 0.0
02 22:35 SE 10 10.00 Fair CLR 84.9 79.2 83% 98 29.89 0.0
02 22:15 SE 12 G 22 10.00 Fair CLR 85.5 79.3 82% 99 29.89 0.0
02 21:55 SE 13 10.00 Fair CLR 86 79.2 80% 100 29.88 0.0
02 21:35 SE 13 10.00 Fair CLR 86.7 79.3 79% 101 29.86 0.0
02 21:15 SE 10 G 20 10.00 Fair CLR 87.4 79.3 77% 103 29.85 0.0
02 20:55 SE 10 G 21 10.00 Fair CLR 88.5 79.2 74% 104 29.84 0.0
02 20:35 SE 15 G 18 10.00 Fair CLR 89.2 79 72% 105 29.84 0.0
02 20:15 SE 16 G 23 10.00 Fair CLR 90 78.8 70% 106 29.83 0.0
02 19:55 SE 15 G 21 10.00 Fair CLR 91 79.2 68% 108 29.82 0.0
02 19:35 SE 14 G 22 10.00 Fair CLR 92.7 78.6 64% 109 29.82 0.0
02 19:15 SE 16 G 23 10.00 Fair CLR 94.5 78.3 60% 111 29.82 0.0
02 18:55 E 16 G 22 10.00 Fair CLR 96.1 77.9 56% 113 29.81 0.0
02 18:35 SE 14 G 23 10.00 Fair CLR 97.5 77 52% 113 29.81 0.0
02 18:15 E 17 G 23 10.00 Fair CLR 98.6 76.6 50% 114 29.81 0.0
02 17:55 E 17 10.00 Fair CLR 99.9 76.1 47% 115 29.8 0.0
02 17:35 E 17 G 23 10.00 Fair CLR 101.1 75 43% 115 29.8 0.0
02 17:15 SE 14 G 21 10.00 Fair CLR 102.2 73.4 40% 114 29.8 0.0
02 16:55 S 15 G 22 10.00 Fair CLR 105.1 62.4 25% 108 29.8 0.0
02 16:35 E 8 G 16 10.00 Fair CLR 103.8 62.1 26% 106 29.8 0.0
02 16:15 S 9 10.00 Fair CLR 103.6 63.3 27% 107 29.81 0.0
02 15:55 S 13 G 20 10.00 Fair CLR 106.3 60.4 22% 108 29.82 0.0
02 15:35 S 6 10.00 Fair CLR 105.6 62.6 25% 108 29.83 0.0
02 15:15 SE 10 G 20 10.00 Fair CLR 105.3 62.1 24% 108 29.84 0.0
02 14:55 E 6 10.00 Fair CLR 105.3 61 24% 107 29.85 0.0
Date Time (cdt) Wind (mph) Vis. (mi.) Weather Sky Cond. Air Dwpt Max. Min. Relative Humidity Wind Chill (°F) Heat Index (°F) altimeter (in) sea level (mb) 1 hr 3 hr 6 hr
6 hour
Temperature (ºF) Pressure Precipitation (in)